CWGZ

Grise Fiord  Airport

Canada

CWGZ 242100Z VRB02KT 15SM SCT030 M10/M16 A2974 RMK SC3 -6.8/-13.3/0.0/LAST STFD OBS/NXT 251300 UTC SLP077

Observed Flight Rules
Nov-24 @ 21:00 UTC (5 hours ago)
 
Visual Flight Rules
Wind Visibility Clouds
Variable at 2 knots 15 miles
  • Scattered at 3,000' AGL
Temperatures Readings
Current -10°C / 14°F
Dewpoint -16°C / 3°F
Humidity 62%
Altimeter 29.74" Hg
Pressure 1007.7 hPa
Elevation 45
Observed Flight Rules
Nov-24 @ 21:00 UTC
(5 hours ago)
 
VFR
Wind Visibility
Variable at 2 knots 15 miles
Clouds
  • Scattered at 3,000' AGL
Temperature Dewpoint
-10°C / 14°F -16°C / 3°F
Humidity Altimeter Pressure
62% 29.74" Hg 1007.7 hPa